Time;durP1;ratioP1;P1;durP2;ratioP2;P2;SDS_P1;SDS_P2;PMS_P1;PMS_P2;Temp;Humidity;BMP_temperature;BMP_pressure;BME280_temperature;BME280_humidity;BME280_pressure;Samples;Min_cycle;Max_cycle;Signal;HPM_P1;HPM_P2
2022/07/09 00:01:46;;;;;;;4.13;2.35;;;20.60;94.50;;;;;;5052305;28;20047;-78
2022/07/09 00:04:13;;;;;;;4.57;2.50;;;20.60;94.70;;;;;;5053654;28;20388;-78
2022/07/09 00:06:40;;;;;;;3.70;2.28;;;20.60;95.10;;;;;;5052176;28;20051;-78
2022/07/09 00:09:07;;;;;;;4.20;2.28;;;20.60;95.50;;;;;;5052456;28;20045;-79
2022/07/09 00:11:34;;;;;;;4.18;2.50;;;20.60;95.90;;;;;;5053195;28;20365;-77
2022/07/09 00:14:01;;;;;;;3.92;2.53;;;20.60;96.20;;;;;;5052623;28;20060;-77
2022/07/09 00:16:28;;;;;;;2.75;1.92;;;20.50;96.50;;;;;;5053308;28;20171;-77
2022/07/09 00:18:56;;;;;;;2.85;2.05;;;20.50;97.00;;;;;;5053180;28;20044;-77
2022/07/09 00:21:23;;;;;;;3.50;2.00;;;20.40;97.50;;;;;;5052430;28;20128;-77
2022/07/09 00:23:50;;;;;;;5.40;3.00;;;20.40;98.20;;;;;;5052399;28;20095;-78
2022/07/09 00:26:18;;;;;;;3.90;1.98;;;20.30;98.90;;;;;;5051641;28;20487;-77
2022/07/09 00:28:45;;;;;;;4.37;2.33;;;20.30;99.90;;;;;;5052931;28;20159;-79
2022/07/09 00:31:12;;;;;;;3.35;2.40;;;20.20;99.90;;;;;;5053450;28;20365;-79
2022/07/09 00:33:39;;;;;;;5.50;1.92;;;20.20;99.90;;;;;;5051668;28;20056;-77
2022/07/09 00:36:06;;;;;;;5.40;2.08;;;20.20;99.90;;;;;;5052337;28;20037;-74
2022/07/09 00:38:33;;;;;;;3.05;2.40;;;20.10;99.90;;;;;;5052690;28;20132;-74
2022/07/09 00:41:01;;;;;;;4.65;2.20;;;20.10;99.90;;;;;;5051437;28;20041;-76
2022/07/09 00:43:28;;;;;;;7.35;2.20;;;20.10;99.90;;;;;;5053059;28;20074;-74
2022/07/09 00:45:55;;;;;;;3.85;2.08;;;20.10;99.90;;;;;;5055635;28;20384;-69
2022/07/09 00:48:22;;;;;;;8.65;7.15;;;20.10;99.90;;;;;;5055413;28;20064;-66
2022/07/09 00:50:49;;;;;;;10.25;8.15;;;20.10;99.90;;;;;;5055038;28;20045;-75
2022/07/09 00:53:16;;;;;;;12.07;9.15;;;20.10;99.90;;;;;;5055530;28;20432;-76
2022/07/09 00:55:44;;;;;;;4.68;3.40;;;20.10;99.90;;;;;;5055299;28;20370;-75
2022/07/09 00:58:12;;;;;;;5.38;2.40;;;20.10;99.90;;;;;;5039546;28;20413;-76
2022/07/09 01:00:39;;;;;;;3.40;2.05;;;20.00;99.90;;;;;;5054852;28;20040;-76
2022/07/09 01:03:06;;;;;;;2.60;1.80;;;20.00;99.90;;;;;;5054928;28;20041;-77
2022/07/09 01:05:35;;;;;;;3.53;1.98;;;20.00;99.90;;;;;;5055101;28;20041;-77
2022/07/09 01:08:06;;;;;;;3.95;2.20;;;19.90;99.90;;;;;;5057096;28;20098;-71
2022/07/09 01:10:33;;;;;;;2.83;1.92;;;19.90;99.90;;;;;;5055005;28;20072;-68
2022/07/09 01:13:02;;;;;;;3.15;2.00;;;19.80;99.90;;;;;;5054246;28;20041;-70
2022/07/09 01:15:28;;;;;;;4.68;2.30;;;19.70;99.90;;;;;;5054920;28;20040;-67
2022/07/09 01:17:57;;;;;;;5.30;2.75;;;19.70;99.90;;;;;;5055732;28;20041;-69
2022/07/09 01:20:25;;;;;;;2.95;2.10;;;19.60;99.90;;;;;;5055613;28;20132;-69
2022/07/09 01:22:52;;;;;;;5.10;2.20;;;19.60;99.90;;;;;;5054658;28;20126;-69
2022/07/09 01:25:19;;;;;;;5.45;2.40;;;19.50;99.90;;;;;;5054654;28;20041;-69
2022/07/09 01:27:46;;;;;;;5.00;2.47;;;19.50;99.90;;;;;;5054258;28;20037;-69
2022/07/09 01:30:28;;;;;;;3.40;2.40;;;19.50;99.90;;;;;;5054659;28;20072;-70
2022/07/09 01:32:55;;;;;;;4.45;2.13;;;19.40;99.90;;;;;;5055489;28;20048;-69
2022/07/09 01:35:22;;;;;;;5.40;2.72;;;19.40;99.90;;;;;;5054136;28;20040;-69
2022/07/09 01:37:51;;;;;;;4.20;2.10;;;19.30;99.90;;;;;;5054539;28;20041;-69
2022/07/09 01:40:18;;;;;;;4.07;2.40;;;19.40;99.90;;;;;;5055794;28;20095;-69
2022/07/09 01:42:47;;;;;;;3.72;2.20;;;19.30;99.90;;;;;;5056271;28;20128;-69
2022/07/09 01:45:15;;;;;;;6.32;2.30;;;19.30;99.90;;;;;;5054811;28;20052;-69
2022/07/09 01:47:42;;;;;;;3.75;2.13;;;19.20;99.90;;;;;;5055023;28;20357;-69
2022/07/09 01:50:09;;;;;;;3.95;2.30;;;19.20;99.90;;;;;;5054537;28;20083;-72
2022/07/09 01:52:36;;;;;;;2.80;2.10;;;19.10;99.90;;;;;;5055055;28;20037;-69
2022/07/09 01:55:04;;;;;;;3.40;1.92;;;19.10;99.90;;;;;;5053534;28;20041;-68
2022/07/09 01:57:31;;;;;;;2.53;1.92;;;19.10;99.90;;;;;;5055235;28;20052;-69
2022/07/09 01:59:58;;;;;;;2.47;2.08;;;19.10;99.90;;;;;;5054937;28;20476;-70
2022/07/09 02:02:25;;;;;;;3.33;2.28;;;19.00;99.90;;;;;;5053760;28;20044;-70
2022/07/09 02:04:51;;;;;;;3.05;2.13;;;19.00;99.90;;;;;;5055128;28;20052;-70
2022/07/09 02:07:18;;;;;;;3.85;1.98;;;19.00;99.90;;;;;;5054802;28;20041;-71
2022/07/09 02:09:45;;;;;;;2.95;1.80;;;18.90;99.90;;;;;;5053583;28;20049;-70
2022/07/09 02:12:12;;;;;;;3.45;2.35;;;18.80;99.90;;;;;;5054692;28;20041;-70
2022/07/09 02:14:40;;;;;;;2.67;1.88;;;18.80;99.90;;;;;;5053856;28;20056;-70
2022/07/09 02:17:06;;;;;;;2.97;2.10;;;18.80;99.90;;;;;;5054933;28;20099;-70
2022/07/09 02:19:33;;;;;;;2.55;1.75;;;18.70;99.90;;;;;;5054864;28;20472;-70
2022/07/09 02:22:00;;;;;;;5.15;2.35;;;18.70;99.90;;;;;;5054850;28;20472;-70
2022/07/09 02:24:28;;;;;;;4.00;1.65;;;18.70;99.90;;;;;;5054495;28;20045;-70
2022/07/09 02:26:55;;;;;;;2.75;1.80;;;18.70;99.90;;;;;;5054121;28;20068;-70
2022/07/09 02:29:21;;;;;;;2.20;1.67;;;18.60;99.90;;;;;;5036643;28;20057;-70
2022/07/09 02:31:48;;;;;;;1.98;1.55;;;18.60;99.90;;;;;;5053220;28;20040;-70
2022/07/09 02:34:15;;;;;;;9.63;2.60;;;18.50;99.90;;;;;;5053426;28;20045;-70
2022/07/09 02:36:42;;;;;;;3.15;1.33;;;18.50;99.90;;;;;;5054407;28;20048;-70
2022/07/09 02:39:09;;;;;;;2.05;1.70;;;18.50;99.90;;;;;;5054578;28;20448;-70
2022/07/09 02:41:36;;;;;;;2.63;1.88;;;18.50;99.90;;;;;;5054643;28;20044;-70
2022/07/09 02:44:03;;;;;;;2.83;1.85;;;18.50;99.90;;;;;;5054038;28;20461;-69
2022/07/09 02:46:30;;;;;;;2.25;1.80;;;18.40;99.90;;;;;;5052813;28;20049;-70
2022/07/09 02:48:57;;;;;;;3.13;1.80;;;18.40;99.90;;;;;;5052811;28;20091;-70
2022/07/09 02:51:24;;;;;;;2.20;1.60;;;18.40;99.90;;;;;;5052731;28;20048;-70
2022/07/09 02:53:51;;;;;;;2.20;1.65;;;18.30;99.90;;;;;;5052755;28;20048;-69
2022/07/09 02:56:17;;;;;;;2.47;1.65;;;18.30;99.90;;;;;;5054505;28;20377;-70
2022/07/09 02:58:44;;;;;;;5.88;2.03;;;18.20;99.90;;;;;;5053813;28;20048;-69
2022/07/09 03:01:11;;;;;;;2.65;1.60;;;18.20;99.90;;;;;;5053866;28;20044;-70
2022/07/09 03:03:38;;;;;;;2.40;1.60;;;18.10;99.90;;;;;;5054093;28;20041;-70
2022/07/09 03:06:07;;;;;;;2.28;1.60;;;18.10;99.90;;;;;;5052783;28;20052;-69
2022/07/09 03:08:35;;;;;;;3.70;1.65;;;18.10;99.90;;;;;;5053315;28;20068;-70
2022/07/09 03:11:03;;;;;;;4.35;1.98;;;18.10;99.90;;;;;;5053603;28;20041;-69
2022/07/09 03:13:30;;;;;;;2.33;1.70;;;18.10;99.90;;;;;;5054658;28;20412;-70
2022/07/09 03:15:57;;;;;;;4.93;2.42;;;18.10;99.90;;;;;;5053878;28;20041;-70
2022/07/09 03:18:24;;;;;;;4.97;2.10;;;18.00;99.90;;;;;;5053899;28;20072;-70
2022/07/09 03:20:51;;;;;;;3.00;1.90;;;18.00;99.90;;;;;;5054362;28;20041;-69
2022/07/09 03:23:18;;;;;;;3.03;1.95;;;18.00;99.90;;;;;;5052236;28;20036;-70
2022/07/09 03:25:45;;;;;;;3.95;2.00;;;17.90;99.90;;;;;;5052551;28;20048;-70
2022/07/09 03:28:13;;;;;;;2.80;1.77;;;17.90;99.90;;;;;;5053468;28;20136;-70
2022/07/09 03:30:40;;;;;;;4.28;1.90;;;17.90;99.90;;;;;;5053779;28;20060;-70
2022/07/09 03:33:07;;;;;;;2.38;1.70;;;17.80;99.90;;;;;;5053291;28;20094;-69
2022/07/09 03:35:34;;;;;;;2.40;1.75;;;17.80;99.90;;;;;;5053664;28;20041;-70
2022/07/09 03:38:01;;;;;;;2.40;2.10;;;17.80;99.90;;;;;;5035914;28;20441;-69
2022/07/09 03:40:28;;;;;;;2.97;1.85;;;17.80;99.90;;;;;;5052313;28;20427;-69
2022/07/09 03:42:54;;;;;;;2.53;2.00;;;17.80;99.90;;;;;;5053517;28;20052;-69
2022/07/09 03:45:21;;;;;;;3.10;1.83;;;17.70;99.90;;;;;;5053388;28;20152;-70
2022/07/09 03:47:48;;;;;;;9.38;8.13;;;17.70;99.90;;;;;;5053112;28;20044;-61
2022/07/09 03:50:15;;;;;;;7.47;6.70;;;17.70;99.90;;;;;;5053015;28;20041;-71
2022/07/09 03:52:42;;;;;;;4.43;2.88;;;17.70;99.90;;;;;;5051760;28;20040;-68
2022/07/09 03:55:09;;;;;;;4.43;2.30;;;17.70;99.90;;;;;;5054083;28;20049;-68
2022/07/09 03:57:37;;;;;;;3.88;2.17;;;17.70;99.90;;;;;;5053638;28;20084;-68
2022/07/09 04:00:07;;;;;;;2.80;1.80;;;17.60;99.90;;;;;;5053323;28;20044;-68
2022/07/09 04:02:34;;;;;;;2.85;2.00;;;17.60;99.90;;;;;;5052963;28;20059;-69
2022/07/09 04:05:01;;;;;;;3.20;1.92;;;17.60;99.90;;;;;;5051785;28;20044;-69
2022/07/09 04:07:29;;;;;;;3.22;2.00;;;17.50;99.90;;;;;;5053288;28;20041;-68
2022/07/09 04:09:55;;;;;;;3.28;2.00;;;17.50;99.90;;;;;;5052004;28;20135;-68
2022/07/09 04:12:22;;;;;;;4.50;2.28;;;17.60;99.90;;;;;;5051724;28;20049;-69
2022/07/09 04:14:49;;;;;;;2.75;1.75;;;17.50;99.90;;;;;;5051682;28;20056;-68
2022/07/09 04:17:16;;;;;;;2.42;2.08;;;17.50;99.90;;;;;;5051701;28;20048;-68
2022/07/09 04:19:44;;;;;;;4.32;2.10;;;17.50;99.90;;;;;;5055816;28;20472;-68
2022/07/09 04:22:11;;;;;;;9.55;2.67;;;17.40;99.90;;;;;;5057903;28;20052;-68
2022/07/09 04:24:38;;;;;;;3.80;2.15;;;17.40;99.90;;;;;;5056745;28;20131;-68
2022/07/09 04:27:05;;;;;;;2.50;2.00;;;17.40;99.90;;;;;;5057754;28;20048;-68
2022/07/09 04:29:32;;;;;;;2.50;1.60;;;17.40;99.90;;;;;;5056832;28;20055;-68
2022/07/09 04:31:59;;;;;;;5.25;2.33;;;17.40;99.90;;;;;;5056681;28;20041;-68
2022/07/09 04:34:28;;;;;;;2.83;2.00;;;17.40;99.90;;;;;;5056600;28;20040;-68
2022/07/09 04:36:55;;;;;;;2.83;2.35;;;17.40;99.90;;;;;;5056803;28;20056;-68
2022/07/09 04:39:24;;;;;;;3.28;2.05;;;17.40;99.90;;;;;;5056320;28;20072;-68
2022/07/09 04:41:51;;;;;;;3.28;2.08;;;17.50;99.90;;;;;;5056708;28;20131;-68
2022/07/09 04:44:18;;;;;;;4.30;2.80;;;17.50;99.90;;;;;;5056578;28;20037;-68
2022/07/09 04:46:45;;;;;;;3.95;2.00;;;17.60;99.90;;;;;;5055231;28;20044;-68
2022/07/09 04:49:12;;;;;;;2.97;2.10;;;17.80;99.90;;;;;;5055195;28;20493;-68
2022/07/09 04:51:38;;;;;;;2.38;1.95;;;18.20;99.90;;;;;;5056624;28;20064;-68
2022/07/09 04:54:05;;;;;;;2.95;1.90;;;18.80;99.90;;;;;;5055350;28;20040;-68
2022/07/09 04:56:32;;;;;;;3.05;2.10;;;19.40;99.90;;;;;;5056203;28;20053;-69
2022/07/09 04:59:02;;;;;;;3.95;2.00;;;20.00;99.90;;;;;;5055944;28;20044;-69
2022/07/09 05:01:29;;;;;;;3.75;2.35;;;20.60;99.90;;;;;;5056359;28;20041;-69
2022/07/09 05:03:57;;;;;;;2.88;1.95;;;21.10;99.90;;;;;;5054748;28;20040;-69
2022/07/09 05:06:24;;;;;;;3.88;2.30;;;21.60;99.90;;;;;;5056265;28;20045;-68
2022/07/09 05:08:51;;;;;;;3.92;1.90;;;22.10;99.90;;;;;;5055941;28;20045;-68
2022/07/09 05:11:17;;;;;;;2.63;1.92;;;22.70;99.90;;;;;;5056356;28;20045;-68
2022/07/09 05:13:46;;;;;;;3.55;2.05;;;23.10;99.90;;;;;;5056833;28;20045;-68
2022/07/09 05:16:13;;;;;;;2.97;1.73;;;23.30;99.90;;;;;;5054518;28;20044;-69
2022/07/09 05:18:40;;;;;;;7.47;2.22;;;23.70;99.90;;;;;;5054884;28;20045;-69
2022/07/09 05:21:07;;;;;;;2.83;1.85;;;23.90;99.90;;;;;;5055666;28;20439;-68
2022/07/09 05:23:34;;;;;;;3.53;2.00;;;24.20;99.90;;;;;;5054613;28;20465;-69
2022/07/09 05:26:01;;;;;;;3.53;2.33;;;24.40;99.90;;;;;;5055797;28;20505;-69
2022/07/09 05:28:28;;;;;;;2.30;1.63;;;24.80;99.90;;;;;;5056449;28;20049;-69
2022/07/09 05:30:55;;;;;;;2.70;1.92;;;25.00;99.00;;;;;;5054533;28;20522;-68
2022/07/09 05:33:42;;;;;;;3.05;1.75;;;25.10;99.10;;;;;;5056270;28;20151;-69
2022/07/09 05:36:17;;;;;;;2.67;1.77;;;25.20;97.90;;;;;;5055348;28;20075;-69
2022/07/09 05:38:44;;;;;;;3.95;1.90;;;25.20;97.90;;;;;;5054571;28;20148;-69
2022/07/09 05:41:11;;;;;;;3.78;1.67;;;25.10;98.00;;;;;;5055661;28;20049;-69
2022/07/09 05:43:38;;;;;;;3.58;2.10;;;24.60;98.00;;;;;;5054707;28;20045;-68
2022/07/09 05:46:05;;;;;;;4.10;2.42;;;24.00;98.50;;;;;;5055611;28;20064;-68
2022/07/09 05:48:32;;;;;;;5.47;2.50;;;23.50;99.90;;;;;;5055180;28;20485;-68
2022/07/09 05:50:59;;;;;;;4.38;2.42;;;23.00;99.90;;;;;;5055430;28;20068;-68
2022/07/09 05:53:26;;;;;;;3.50;2.05;;;22.60;99.90;;;;;;5055935;28;20041;-68
2022/07/09 05:55:53;;;;;;;3.53;2.58;;;22.00;99.90;;;;;;5055341;28;20396;-69
2022/07/09 05:58:20;;;;;;;3.65;2.30;;;21.60;99.90;;;;;;5055018;28;20080;-69
2022/07/09 06:00:47;;;;;;;3.28;2.17;;;21.40;99.90;;;;;;5054074;28;20041;-69
2022/07/09 06:03:14;;;;;;;2.97;2.00;;;21.20;99.90;;;;;;5055212;28;20091;-69
2022/07/09 06:05:41;;;;;;;3.40;2.20;;;21.30;99.90;;;;;;5055147;28;20068;-69
2022/07/09 06:08:09;;;;;;;5.43;2.30;;;21.30;99.90;;;;;;5054402;28;20071;-69
2022/07/09 06:10:36;;;;;;;3.85;2.72;;;21.20;99.90;;;;;;5054740;28;20465;-68
2022/07/09 06:13:03;;;;;;;5.65;2.80;;;21.10;99.90;;;;;;5054652;28;20048;-68
2022/07/09 06:15:29;;;;;;;3.15;2.38;;;20.90;99.90;;;;;;5053422;28;20055;-69
2022/07/09 06:17:56;;;;;;;3.90;2.30;;;20.70;99.90;;;;;;5055374;28;20044;-69
2022/07/09 06:20:23;;;;;;;7.18;2.10;;;20.80;99.90;;;;;;5055352;28;20082;-68
2022/07/09 06:22:50;;;;;;;4.63;2.25;;;20.90;99.90;;;;;;5054560;28;20075;-68
2022/07/09 06:25:17;;;;;;;3.72;2.50;;;20.90;99.90;;;;;;5054739;28;20045;-68
2022/07/09 06:27:44;;;;;;;4.00;2.05;;;21.00;99.90;;;;;;5054738;28;20049;-68
2022/07/09 06:30:11;;;;;;;4.93;2.53;;;21.10;99.90;;;;;;5054541;28;20053;-68
2022/07/09 06:32:38;;;;;;;5.93;2.83;;;21.10;99.90;;;;;;5055367;28;20381;-68
2022/07/09 06:35:06;;;;;;;3.78;2.10;;;21.20;99.90;;;;;;5054702;28;20044;-68
2022/07/09 06:37:33;;;;;;;5.07;2.13;;;21.00;99.90;;;;;;5053361;28;20057;-68
2022/07/09 06:40:00;;;;;;;4.20;2.78;;;21.00;99.90;;;;;;5054482;28;20037;-68
2022/07/09 06:42:27;;;;;;;3.28;1.90;;;20.90;99.90;;;;;;5054399;28;20048;-68
2022/07/09 06:45:01;;;;;;;5.30;3.00;;;21.10;99.90;;;;;;5054141;28;20055;-68
2022/07/09 06:47:27;;;;;;;4.55;2.50;;;21.20;99.90;;;;;;5053692;28;20051;-68
2022/07/09 06:49:54;;;;;;;2.95;2.30;;;21.40;99.90;;;;;;5052926;28;20041;-68
2022/07/09 06:52:21;;;;;;;3.10;2.00;;;21.50;99.90;;;;;;5053630;28;20045;-68
2022/07/09 06:54:48;;;;;;;4.35;2.20;;;21.50;99.90;;;;;;5053044;28;20045;-68
2022/07/09 06:57:16;;;;;;;3.10;2.17;;;21.30;99.90;;;;;;5053016;28;20045;-68
2022/07/09 06:59:45;;;;;;;4.75;2.15;;;21.30;99.90;;;;;;5053751;28;20135;-67
2022/07/09 07:02:13;;;;;;;4.45;2.88;;;21.10;99.90;;;;;;5054913;28;20366;-67
2022/07/09 07:04:39;;;;;;;2.60;1.80;;;20.90;99.90;;;;;;5053988;28;20041;-68
2022/07/09 07:07:06;;;;;;;2.63;1.90;;;20.90;99.90;;;;;;5054101;28;20068;-68
2022/07/09 07:09:33;;;;;;;4.78;2.00;;;21.00;99.90;;;;;;5036343;28;20056;-67
2022/07/09 07:12:00;;;;;;;2.88;1.98;;;21.00;99.90;;;;;;5053994;28;20049;-67
2022/07/09 07:14:27;;;;;;;4.03;1.90;;;21.10;99.90;;;;;;5052765;28;20047;-70
2022/07/09 07:16:54;;;;;;;2.78;1.60;;;21.20;99.90;;;;;;5052764;28;20127;-67
2022/07/09 07:19:21;;;;;;;2.33;1.70;;;21.10;99.90;;;;;;5053479;28;20086;-68
2022/07/09 07:21:48;;;;;;;3.50;1.95;;;21.10;99.90;;;;;;5052528;28;20051;-68
2022/07/09 07:24:15;;;;;;;3.72;1.90;;;21.00;99.90;;;;;;5052460;28;20048;-69
2022/07/09 07:26:42;;;;;;;3.47;1.80;;;21.00;99.90;;;;;;5054506;28;20045;-68
2022/07/09 07:29:09;;;;;;;2.20;1.33;;;21.00;99.90;;;;;;5053359;28;20044;-68
2022/07/09 07:31:38;;;;;;;;;;;21.10;99.90;;;;;;5053470;28;20072;-69
2022/07/09 07:34:05;;;;;;;2.17;1.60;;;21.20;99.90;;;;;;5068917;28;19952;-68
2022/07/09 07:36:34;;;;;;;2.90;1.50;;;21.30;99.90;;;;;;5053240;28;20072;-68
2022/07/09 07:39:01;;;;;;;2.33;1.40;;;21.40;99.90;;;;;;5054049;28;20045;-68
2022/07/09 07:41:28;;;;;;;2.40;1.25;;;21.30;99.90;;;;;;5052866;28;20045;-69
2022/07/09 07:43:55;;;;;;;3.38;1.40;;;21.20;99.90;;;;;;5054055;28;20387;-68
2022/07/09 07:46:22;;;;;;;2.17;1.67;;;21.20;99.90;;;;;;5052206;28;20041;-68
2022/07/09 07:48:49;;;;;;;1.92;1.25;;;21.20;99.90;;;;;;5053444;28;20133;-68
2022/07/09 07:51:16;;;;;;;30.67;27.50;;;21.30;99.90;;;;;;5052894;28;20051;-72
2022/07/09 07:53:43;;;;;;;4.15;3.72;;;21.30;99.90;;;;;;5052731;28;20048;-69
2022/07/09 07:56:10;;;;;;;3.38;1.90;;;21.30;99.90;;;;;;5052910;28;20052;-69
2022/07/09 07:58:36;;;;;;;3.10;2.03;;;21.40;99.90;;;;;;5052508;28;20037;-68
2022/07/09 08:01:04;;;;;;;4.97;1.40;;;21.40;99.90;;;;;;5052851;28;20132;-68
2022/07/09 08:03:32;;;;;;;3.28;1.38;;;21.40;99.90;;;;;;5051787;28;20037;-68
2022/07/09 08:06:00;;;;;;;1.80;1.50;;;21.40;99.90;;;;;;5051682;28;20036;-68
2022/07/09 08:08:27;;;;;;;3.83;1.70;;;21.30;99.90;;;;;;5052841;28;20045;-68
2022/07/09 08:10:54;;;;;;;2.53;1.77;;;21.40;99.90;;;;;;5052204;28;20518;-69
2022/07/09 08:13:21;;;;;;;3.08;1.48;;;21.40;99.90;;;;;;5035470;28;20048;-68
2022/07/09 08:15:47;;;;;;;2.13;1.58;;;21.20;99.90;;;;;;5052350;28;20041;-68
2022/07/09 08:18:14;;;;;;;3.22;1.60;;;21.20;99.90;;;;;;5053245;28;20045;-68
2022/07/09 08:20:42;;;;;;;1.45;1.20;;;21.30;99.90;;;;;;5052775;28;20128;-68
2022/07/09 08:23:09;;;;;;;1.67;1.20;;;21.30;99.90;;;;;;5051915;28;20045;-68
2022/07/09 08:25:36;;;;;;;2.97;1.75;;;21.40;99.90;;;;;;5051419;28;20051;-68
2022/07/09 08:28:03;;;;;;;2.83;1.60;;;21.30;99.90;;;;;;5051781;28;20087;-68
2022/07/09 08:30:30;;;;;;;6.35;3.90;;;21.40;99.90;;;;;;5051689;28;20057;-68
2022/07/09 08:32:57;;;;;;;2.80;1.40;;;21.40;99.90;;;;;;5051403;28;20041;-67
2022/07/09 08:35:25;;;;;;;2.40;1.30;;;21.40;99.90;;;;;;5051348;28;20079;-68
2022/07/09 08:37:53;;;;;;;;;;;21.40;99.90;;;;;;5051842;28;20045;-68
2022/07/09 08:40:20;;;;;;;1.85;1.20;;;21.40;99.90;;;;;;5084915;28;19939;-68
2022/07/09 08:42:48;;;;;;;4.30;1.20;;;21.20;99.90;;;;;;5035102;28;20044;-68
2022/07/09 08:45:16;;;;;;;2.67;1.13;;;21.30;99.90;;;;;;5053283;28;20068;-68
2022/07/09 08:47:43;;;;;;;3.60;1.20;;;21.30;99.90;;;;;;5052939;28;20041;-68
2022/07/09 08:50:11;;;;;;;2.88;1.20;;;21.40;99.90;;;;;;5051306;28;20055;-68
2022/07/09 08:52:39;;;;;;;2.47;1.17;;;21.40;99.90;;;;;;5053172;28;20051;-68
2022/07/09 08:55:07;;;;;;;1.60;1.15;;;21.40;99.90;;;;;;5051516;28;20049;-68
2022/07/09 08:57:34;;;;;;;2.75;1.20;;;21.40;99.90;;;;;;5051719;28;20048;-69
2022/07/09 09:00:03;;;;;;;1.92;1.25;;;21.40;99.90;;;;;;5052013;28;20128;-69
2022/07/09 09:02:39;;;;;;;2.13;1.30;;;21.20;99.90;;;;;;5053310;28;20094;-69
2022/07/09 09:05:15;;;;;;;2.05;1.38;;;21.10;99.90;;;;;;5053524;28;20333;-69
2022/07/09 09:07:42;;;;;;;2.13;1.50;;;21.20;99.90;;;;;;5056410;28;20052;-68
2022/07/09 09:10:23;;;;;;;2.38;1.40;;;21.10;99.90;;;;;;5055997;28;20048;-69
2022/07/09 09:13:00;;;;;;;2.60;1.52;;;21.20;99.90;;;;;;5056962;28;20444;-68
2022/07/09 09:15:27;;;;;;;2.45;1.55;;;21.30;99.90;;;;;;5055581;28;20416;-68
2022/07/09 09:17:54;;;;;;;6.03;1.65;;;21.30;99.90;;;;;;5039101;28;20048;-69
2022/07/09 09:20:22;;;;;;;1.73;1.27;;;21.50;99.90;;;;;;5054840;28;20041;-69
2022/07/09 09:22:54;;;;;;;3.28;2.17;;;21.60;99.90;;;;;;5054535;28;20056;-69
2022/07/09 09:25:21;;;;;;;4.97;2.00;;;21.80;99.90;;;;;;5054493;28;20056;-69
2022/07/09 09:27:55;;;;;;;2.08;1.60;;;21.80;99.90;;;;;;5055920;28;20052;-69
2022/07/09 09:30:22;;;;;;;1.50;1.20;;;21.70;99.90;;;;;;5054115;28;20049;-69
2022/07/09 09:33:00;;;;;;;2.25;1.40;;;21.80;99.90;;;;;;5054318;28;20045;-69
2022/07/09 09:35:34;;;;;;;1.77;1.25;;;21.80;99.90;;;;;;5054322;28;20099;-69
2022/07/09 09:38:00;;;;;;;1.55;1.20;;;21.80;99.90;;;;;;5056491;28;20128;-69
2022/07/09 09:40:27;;;;;;;3.33;1.40;;;21.70;99.90;;;;;;5056086;28;20064;-69
2022/07/09 09:42:56;;;;;;;1.98;1.50;;;21.80;99.90;;;;;;5055091;28;20048;-69
2022/07/09 09:45:24;;;;;;;2.42;1.40;;;21.90;99.90;;;;;;5053541;28;20515;-69
2022/07/09 09:47:51;;;;;;;3.55;1.55;;;22.00;99.90;;;;;;5055446;28;20045;-69
2022/07/09 09:50:23;;;;;;;2.10;1.35;;;22.10;99.90;;;;;;5037850;28;20120;-68
2022/07/09 09:52:51;;;;;;;2.85;1.35;;;22.00;99.90;;;;;;5054095;28;20037;-69
2022/07/09 09:55:19;;;;;;;3.57;2.33;;;21.90;99.90;;;;;;5055494;28;20124;-68
2022/07/09 09:57:46;;;;;;;2.30;1.50;;;22.00;99.90;;;;;;5055220;28;20284;-69
2022/07/09 10:00:14;;;;;;;1.80;1.35;;;21.90;99.90;;;;;;5037604;28;20072;-68
2022/07/09 10:02:50;;;;;;;2.13;1.48;;;22.10;99.90;;;;;;5053692;28;20396;-68
2022/07/09 10:05:17;;;;;;;2.85;1.83;;;22.20;99.90;;;;;;5055532;28;20051;-68
2022/07/09 10:07:44;;;;;;;4.72;1.85;;;22.40;99.90;;;;;;5053638;28;20120;-68
2022/07/09 10:10:19;;;;;;;2.22;1.60;;;22.50;99.90;;;;;;5053644;28;20076;-68
2022/07/09 10:12:46;;;;;;;4.18;2.22;;;22.80;99.90;;;;;;5054625;28;20052;-68
2022/07/09 10:15:22;;;;;;;5.97;4.53;;;22.70;99.90;;;;;;5053740;28;20044;-69
2022/07/09 10:17:49;;;;;;;5.30;2.10;;;22.70;99.90;;;;;;5054090;28;20377;-68
2022/07/09 10:20:16;;;;;;;26.42;22.08;;;22.70;99.90;;;;;;5054767;28;20087;-76
2022/07/09 10:22:45;;;;;;;4.35;3.95;;;22.70;99.90;;;;;;5037330;28;20059;-68
2022/07/09 10:25:23;;;;;;;4.97;2.97;;;22.70;99.90;;;;;;5054860;28;20155;-69
2022/07/09 10:27:50;;;;;;;2.00;1.40;;;22.90;99.90;;;;;;5037501;28;20341;-69
2022/07/09 10:30:33;;;;;;;2.90;1.60;;;23.10;99.90;;;;;;5053455;28;20045;-69
2022/07/09 10:33:07;;;;;;;2.65;1.67;;;23.20;99.90;;;;;;5053362;28;20469;-68
2022/07/09 10:35:54;;;;;;;2.17;1.40;;;23.20;99.90;;;;;;5053372;28;20070;-69
2022/07/09 10:38:22;;;;;;;1.80;1.30;;;23.10;99.80;;;;;;5053584;28;20059;-68
2022/07/09 10:40:57;;;;;;;1.90;1.30;;;23.00;99.70;;;;;;5054361;28;20496;-69
2022/07/09 10:43:47;;;;;;;2.88;1.70;;;22.90;99.50;;;;;;5053984;28;20056;-69
2022/07/09 10:46:14;;;;;;;2.28;2.00;;;23.00;99.20;;;;;;5052996;28;20049;-69
2022/07/09 10:48:42;;;;;;;2.78;1.65;;;23.10;99.60;;;;;;5052885;28;20080;-69
2022/07/09 10:51:15;;;;;;;5.10;3.85;;;23.40;98.90;;;;;;5036667;28;20048;-64
2022/07/09 10:53:42;;;;;;;5.22;2.08;;;23.30;98.90;;;;;;5053633;28;20052;-70
2022/07/09 10:56:09;;;;;;;4.05;3.35;;;23.40;98.60;;;;;;5054275;28;20052;-69
2022/07/09 10:58:36;;;;;;;2.97;1.75;;;23.40;98.00;;;;;;5054311;28;20040;-69
2022/07/09 11:01:04;;;;;;;3.25;1.80;;;23.50;97.90;;;;;;5052968;28;20045;-69
2022/07/09 11:03:31;;;;;;;2.88;1.60;;;23.50;97.30;;;;;;5052738;28;20048;-69
2022/07/09 11:05:58;;;;;;;3.42;1.75;;;23.60;97.50;;;;;;5053561;28;20041;-69
2022/07/09 11:08:25;;;;;;;2.95;1.58;;;23.60;96.70;;;;;;5054163;28;20091;-69
2022/07/09 11:10:52;;;;;;;2.35;1.75;;;23.70;96.60;;;;;;5052688;28;20075;-69
2022/07/09 11:13:22;;;;;;;3.38;1.52;;;23.70;95.60;;;;;;5053602;28;20441;-70
2022/07/09 11:15:49;;;;;;;2.53;1.38;;;23.80;94.70;;;;;;5052728;28;20059;-69
2022/07/09 11:18:17;;;;;;;1.98;1.55;;;23.90;95.50;;;;;;5052345;28;20072;-69
2022/07/09 11:20:45;;;;;;;3.40;1.63;;;24.00;94.00;;;;;;5053521;28;20045;-69
2022/07/09 11:23:13;;;;;;;2.78;1.60;;;24.10;92.00;;;;;;5053778;28;20037;-70
2022/07/09 11:25:40;;;;;;;2.10;1.70;;;23.90;90.80;;;;;;5035609;28;20055;-70
2022/07/09 11:28:07;;;;;;;2.42;1.73;;;23.90;90.90;;;;;;5051423;28;20052;-71
2022/07/09 11:30:39;;;;;;;2.60;1.73;;;24.00;91.20;;;;;;5053264;28;20480;-69
2022/07/09 11:33:06;;;;;;;2.22;1.60;;;24.30;91.80;;;;;;5053135;28;20044;-69
2022/07/09 11:35:34;;;;;;;10.85;9.90;;;24.50;90.10;;;;;;5052339;28;20080;-73
2022/07/09 11:38:02;;;;;;;4.75;3.70;;;24.50;90.00;;;;;;5035955;28;20072;-68
2022/07/09 11:40:29;;;;;;;3.83;3.23;;;24.50;89.10;;;;;;5052748;28;20049;-74
2022/07/09 11:42:56;;;;;;;2.92;2.33;;;24.30;83.90;;;;;;5052328;28;20370;-67
2022/07/09 11:45:28;;;;;;;5.82;2.53;;;24.20;84.70;;;;;;5053417;28;20048;-67
2022/07/09 11:48:05;;;;;;;4.72;1.75;;;24.20;85.30;;;;;;5036525;28;20124;-67
2022/07/09 11:50:33;;;;;;;2.45;1.83;;;24.30;84.40;;;;;;5053817;28;20041;-67
2022/07/09 11:53:00;;;;;;;2.83;1.50;;;24.50;82.60;;;;;;5051921;28;20048;-67
2022/07/09 11:55:31;;;;;;;2.35;1.60;;;24.60;82.20;;;;;;5053569;28;20126;-64
2022/07/09 11:58:11;;;;;;;1.70;1.40;;;24.50;80.30;;;;;;5051899;28;20049;-67
2022/07/09 12:00:40;;;;;;;3.35;2.40;;;24.60;80.80;;;;;;5052990;28;20044;-65
2022/07/09 12:03:06;;;;;;;3.17;2.30;;;24.60;80.00;;;;;;5035384;28;20559;-64
2022/07/09 12:05:36;;;;;;;3.88;2.03;;;24.60;81.50;;;;;;5052033;28;20083;-67
2022/07/09 12:08:05;;;;;;;2.20;1.70;;;24.60;79.50;;;;;;5035736;28;20099;-65
2022/07/09 12:10:32;;;;;;;;;;;24.50;79.70;;;;;;5053731;28;20057;-64
2022/07/09 12:12:59;;;;;;;5.47;1.50;;;24.60;80.70;;;;;;5052597;28;19916;-65
2022/07/09 12:15:27;;;;;;;2.80;1.90;;;24.60;80.20;;;;;;5053407;28;20041;-66
2022/07/09 12:17:56;;;;;;;1.88;1.55;;;24.70;81.20;;;;;;5051678;28;20496;-66
2022/07/09 12:20:25;;;;;;;1.98;1.35;;;24.80;78.00;;;;;;5052498;28;20056;-66
2022/07/09 12:22:53;;;;;;;3.42;1.88;;;24.80;78.10;;;;;;5053680;28;20054;-66
2022/07/09 12:25:22;;;;;;;2.40;1.90;;;24.80;76.70;;;;;;5052465;28;20048;-66
2022/07/09 12:27:50;;;;;;;4.07;3.13;;;24.80;77.80;;;;;;5052320;28;20044;-66
2022/07/09 12:30:17;;;;;;;11.18;9.93;;;24.70;78.00;;;;;;5053296;28;20057;-65
2022/07/09 12:32:45;;;;;;;3.55;2.95;;;24.80;78.10;;;;;;5036388;28;20151;-68
2022/07/09 12:35:12;;;;;;;3.80;3.15;;;24.70;78.20;;;;;;5051973;28;20477;-67
2022/07/09 12:37:39;;;;;;;3.28;2.38;;;24.60;77.80;;;;;;5052076;28;20408;-64
2022/07/09 12:40:10;;;;;;;8.32;7.45;;;24.60;78.60;;;;;;5054086;28;20056;-63
2022/07/09 12:42:37;;;;;;;4.43;2.40;;;24.50;77.50;;;;;;5057540;28;20500;-64
2022/07/09 12:45:05;;;;;;;9.07;3.47;;;24.60;77.90;;;;;;5055635;28;20048;-68
2022/07/09 12:47:37;;;;;;;1.98;1.45;;;24.70;76.60;;;;;;5057229;28;20094;-64
2022/07/09 12:50:04;;;;;;;1.90;1.50;;;24.80;74.10;;;;;;5055892;28;20163;-63
2022/07/09 12:52:34;;;;;;;3.50;1.60;;;24.80;73.70;;;;;;5056029;28;20051;-63